»·PEaware :: DCM2499 KLGB-KMYF

DCM2499 :: KLGB-KMYF

FLIGHT INFORMATION

Flight Status: Arrived
Operator: DotCom
More flights by this operator :: More flights under this callsign
Pilot: Alec D. (17934)
Aircraft: GATES LEARJET LEARJET 35/36
(LJ35)
More flights by this aircraft type
Origin: KLGB Long Beach
United States
Destination: KMYF Montgomery
United States
More flights between these airports :: More routes between these airports
Route: FERMY V25 PACIF V208 HUBRD CARDI MZB
File this flight plan on PilotEdge
Remarks:
Altitude:
(Current/Filed)
9,000ft
Speed:
(Current/Filed)
280kts
Departed: 02-Jul-19 07:27 PM
Arrived: 02-Jul-19 07:52 PM
Distance/Time
Traveled:
79nm/0:25
Distance/Time
To Go:
Arrived

Flight Plot

Page will automatically refresh every two minutes.

Flight plan parsing failed; only flown route is shown


Map Options




Map Legend


Flown Route
Filed Route
Departure Airport
Arrival Airport
Navaid (VOR, NDB)
Fix

Horizontal Profiles

Position Reports

Time Latitude Longitude Heading Altitude Ground
Speed
02-Jul-19 19:05 33.816717 -118.158104 270 62ft 0kts
02-Jul-19 19:06 33.816717 -118.158104 270 63ft 0kts
02-Jul-19 19:07 33.816717 -118.158104 270 63ft 0kts
02-Jul-19 19:08 33.816717 -118.158104 270 63ft 0kts
02-Jul-19 19:09 33.816717 -118.158106 270 63ft 0kts
02-Jul-19 19:10 33.816717 -118.158110 270 63ft 0kts
02-Jul-19 19:11 33.816717 -118.158114 270 63ft 0kts
02-Jul-19 19:12 33.816717 -118.158117 270 63ft 0kts
02-Jul-19 19:13 33.816717 -118.158121 270 63ft 0kts
02-Jul-19 19:14 33.816717 -118.158125 270 63ft 0kts
02-Jul-19 19:15 33.816717 -118.158129 270 63ft 0kts
02-Jul-19 19:16 33.816717 -118.158132 270 63ft 0kts
02-Jul-19 19:17 33.816717 -118.158136 270 63ft 0kts
02-Jul-19 19:18 33.816717 -118.158140 270 63ft 0kts
02-Jul-19 19:19 33.816717 -118.158144 270 63ft 0kts
02-Jul-19 19:20 33.816184 -118.157858 138 63ft 4kts
02-Jul-19 19:21 33.815035 -118.155520 89 63ft 17kts
02-Jul-19 19:22 33.815016 -118.149659 100 63ft 15kts
02-Jul-19 19:23 33.812188 -118.146831 130 63ft 14kts
02-Jul-19 19:24 33.808953 -118.142331 132 63ft 15kts
02-Jul-19 19:25 33.806863 -118.139053 45 63ft 8kts
02-Jul-19 19:26 33.821058 -118.155633 313 754ft 169kts
02-Jul-19 19:27 33.836116 -118.210549 237 3176ft 227kts
02-Jul-19 19:28 33.776460 -118.239616 191 3012ft 237kts
02-Jul-19 19:29 33.707436 -118.233003 139 5922ft 275kts
02-Jul-19 19:30 33.660059 -118.157707 127 8638ft 279kts
02-Jul-19 19:31 33.610743 -118.082709 129 9004ft 291kts
02-Jul-19 19:32 33.559901 -118.007881 130 9002ft 289kts
02-Jul-19 19:33 33.508543 -117.932967 130 9004ft 292kts
02-Jul-19 19:34 33.456830 -117.857815 130 9013ft 293kts
02-Jul-19 19:35 33.404780 -117.782389 130 9017ft 294kts
02-Jul-19 19:36 33.352568 -117.706948 130 9018ft 294kts
02-Jul-19 19:37 33.300172 -117.631501 130 9018ft 294kts
02-Jul-19 19:38 33.247038 -117.557227 134 9018ft 294kts
02-Jul-19 19:39 33.190295 -117.487952 135 8169ft 288kts
02-Jul-19 19:40 33.134615 -117.420432 143 6407ft 281kts
02-Jul-19 19:41 33.067527 -117.379600 147 5036ft 255kts
02-Jul-19 19:42 33.028850 -117.317340 122 5032ft 217kts
02-Jul-19 19:43 32.998106 -117.257302 122 5038ft 211kts
02-Jul-19 19:44 32.967199 -117.196585 121 4478ft 221kts
02-Jul-19 19:45 32.934738 -117.133095 121 3149ft 219kts
02-Jul-19 19:46 32.902813 -117.078170 125 2890ft 187kts
02-Jul-19 19:47 32.864453 -117.043793 173 2788ft 188kts
02-Jul-19 19:48 32.819613 -117.042137 205 2283ft 143kts
02-Jul-19 19:49 32.790647 -117.069543 251 1595ft 135kts
02-Jul-19 19:50 32.804860 -117.110554 293 890ft 137kts
02-Jul-19 19:51 32.817773 -117.143731 294 430ft 23kts
02-Jul-19 19:52 32.816719 -117.145771 204 430ft 13kts
02-Jul-19 19:53 32.814547 -117.144455 64 430ft 18kts
02-Jul-19 19:54 32.814293 -117.142002 202 430ft 0kts

Navigation Log

Ident Type
Flight plan parsing failed, navigation log unavailable